Weather observations for the past three days for
Oklahoma City, Wiley Post Airport
Imperial (Metric)
Date Time (cdt) Wind (mph) Vis. (mi.) Weather Sky Cond. Temperature (ºF) Relative Humidity Wind Chill (°F) Heat Index (°F) Pressure Precipitation (in)
Air Dwpt 6 hour altimeter (in) sea level (mb) 1 hr 3 hr 6 hr
Max. Min.
05 05:53 S 9 10.00 Fair CLR 79 66 65% 81 29.94 1011.8
05 04:53 S 8 10.00 Fair CLR 80.1 66 62% 82 29.94 1011.7
05 03:53 S 9 10.00 Fair CLR 82 66 58% 84 29.94 1011.7
05 02:53 S 13 10.00 Fair CLR 82.9 66.9 59% 86 29.92 1011.2
05 01:53 S 13 10.00 Fair CLR 84.9 66 53% 87 29.93 1011.3
05 00:53 S 14 10.00 Fair CLR 86 66 97 86 51% 88 29.93 1011.6
04 23:53 S 13 10.00 Fair CLR 86 66 51% 88 29.93 1011.5
04 22:53 S 15 G 24 10.00 Fair CLR 89.1 66 47% 92 29.93 1011.5
04 21:53 S 14 10.00 Fair CLR 91 66 44% 94 29.91 1010.8
04 20:53 SE 12 10.00 Fair CLR 91.9 64.9 41% 94 29.88 1010.0
04 19:53 SE 13 10.00 Fair CLR 93.9 66 40% 97 29.86 1009.3
04 18:53 SE 14 10.00 A Few Clouds FEW070 97 66 100.9 95 36% 101 29.86 1009.1
04 17:53 S 16 G 22 10.00 A Few Clouds FEW075 98.1 66 35% 102 29.86 1009.0
04 16:53 SE 13 G 23 10.00 Partly Cloudy SCT075 99 66 34% 103 29.86 1009.1
04 15:53 S 18 G 25 10.00 Fair CLR 100 66.9 34% 105 29.87 1009.4
04 14:53 S 14 G 25 10.00 Fair CLR 100 66 33% 104 29.89 1010.0
04 13:53 SE 15 G 23 10.00 Fair CLR 98.1 66.9 36% 103 29.9 1010.5
04 12:53 S 17 G 23 10.00 Fair CLR 96.1 69.1 96.1 75 41% 102 29.92 1011.4
04 10:53 S 15 10.00 Fair CLR 89.1 69.1 52% 94 29.94 1011.9
04 09:53 S 17 10.00 Fair CLR 84 70 63% 88 29.94 1011.9
04 08:53 S 16 10.00 Fair CLR 80.1 69.1 69% 83 29.94 1012.1
04 07:53 S 14 10.00 Fair CLR 75.9 68 77% 77 29.93 1011.8
04 06:53 S 13 10.00 Fair CLR 75.9 68 80.1 75 77% 77 29.92 1011.2
04 05:53 S 13 10.00 Fair CLR 77 68 74% 79 29.91 1011.0
04 04:53 S 8 10.00 Fair CLR 77 69.1 77% 79 29.92 1011.1
04 03:53 S 10 10.00 Fair CLR 77 69.1 77% 79 29.91 1010.8
04 02:53 S 15 10.00 Fair CLR 78.1 70 76% 80 29.9 1010.5
04 01:53 S 14 10.00 Fair CLR 79 71.1 77% 82 29.91 1010.8
04 00:53 S 14 G 22 10.00 Fair CLR 80.1 70 91 80.1 71% 83 29.91 1011.0
03 23:53 S 17 G 25 10.00 Fair CLR 82 70 67% 86 29.91 1010.8
03 22:53 SE 16 G 23 10.00 Fair CLR 82.9 70 65% 87 29.92 1011.1
03 21:53 SE 12 10.00 Fair CLR 84.9 69.1 59% 89 29.91 1011.0
03 20:53 SE 14 G 24 10.00 Fair CLR 86 69.1 57% 90 29.89 1010.3
03 19:53 SE 20 10.00 Fair CLR 89.1 69.1 52% 94 29.86 1009.3
03 18:53 SE 20 G 28 10.00 Fair CLR 91 69.1 96.1 91 49% 96 29.85 1009.0
03 17:53 SE 14 G 24 10.00 Fair CLR 93.9 69.1 44% 99 29.84 1008.4
03 16:53 SE 14 G 22 10.00 Fair CLR 93.9 69.1 44% 99 29.85 1008.8
03 15:53 SE 16 G 22 10.00 Fair CLR 95 69.1 43% 101 29.86 1009.2
03 14:53 S 10 G 22 10.00 Fair CLR 93.9 69.1 44% 99 29.88 1009.9
03 13:53 SE 9 10.00 Fair CLR 93.9 69.1 44% 99 29.9 1010.4
03 12:53 SE 12 10.00 Fair CLR 91.9 69.1 91.9 75 47% 97 29.92 1011.0
03 11:53 SE 10 10.00 Fair CLR 88 70 55% 93 29.94 1011.8
03 10:53 S 12 10.00 Fair CLR 86 70 59% 91 29.94 1012.0
03 09:53 S 12 10.00 Fair CLR 82 70 67% 86 29.96 1012.4
03 08:53 S 18 10.00 Fair CLR 79 70 74% 82 29.97 1012.9
03 07:53 S 16 10.00 Fair CLR 75.9 69.1 79% 77 29.96 1012.5
03 06:53 S 12 10.00 Fair CLR 75 68 84.9 75 79% 76 29.94 1011.9
03 05:53 S 12 10.00 Fair CLR 77 68 74% 79 29.93 1011.7
03 04:53 S 12 10.00 Fair CLR 78.1 68 71% 80 29.93 1011.5
03 03:53 S 16 10.00 Fair CLR 80.1 68 67% 83 29.93 1011.4
03 02:53 S 15 10.00 Fair CLR 81 68 65% 84 29.93 1011.4
03 01:53 S 14 G 25 10.00 Fair CLR 82.9 68 61% 86 29.93 1011.4
03 00:53 S 13 10.00 Fair CLR 84.9 66.9 97 84.9 55% 88 29.93 1011.3
02 23:53 S 15 G 23 10.00 Fair CLR 87.1 64.9 48% 89 29.92 1011.2
02 22:53 S 15 10.00 Fair CLR 89.1 64.9 45% 91 29.92 1011.1
02 21:53 SE 14 G 23 10.00 Fair CLR 91 63 39% 92 29.92 1011.1
02 20:53 SE 13 10.00 Fair CLR 93 63 37% 94 29.9 1010.7
02 19:53 S 10 10.00 Fair CLR 93.9 62.1 35% 95 29.89 1010.0
02 18:53 SE 14 10.00 Fair CLR 97 62.1 100.9 97 32% 98 29.88 1009.9
02 17:53 SE 13 10.00 Fair CLR 99 60.1 28% 99 29.89 1010.0
02 16:53 SE 14 G 20 10.00 Fair CLR 99 63 31% 101 29.9 1010.3
02 15:53 S 10 G 21 10.00 Fair CLR 99 62.1 30% 100 29.92 1010.9
02 14:53 SE 8 G 20 10.00 Fair CLR 98.1 64 33% 101 29.94 1011.7
02 13:53 SE 14 G 23 10.00 Fair CLR 97 64.9 35% 100 29.96 1012.6
02 12:53 S 9 10.00 Fair CLR 98.1 64.9 98.1 78.1 34% 101 29.99 1013.6
02 10:53 S 14 10.00 Fair CLR 91.9 66 43% 95 30.02 1014.7
02 09:53 S 16 10.00 Fair CLR 89.1 66.9 48% 92 30.03 1014.8
02 08:53 S 10 G 21 10.00 Fair CLR 82.9 66.9 59% 86 30.03 1014.8
02 07:53 S 13 10.00 Fair CLR 79 66.9 67% 81 30.02 1014.7
02 06:53 S 12 10.00 Fair CLR 78.1 66 84 78.1 67% 80 30 1014.0
Date Time (cdt) Wind (mph) Vis. (mi.) Weather Sky Cond. Air Dwpt Max. Min. Relative Humidity Wind Chill (°F) Heat Index (°F) altimeter (in) sea level (mb) 1 hr 3 hr 6 hr
6 hour
Temperature (ºF) Pressure Precipitation (in)